createdAt,value
2024-02-19T00:00:03.061Z,96296.88
2024-02-19T00:02:29.507Z,96295.50
2024-02-19T00:04:56.037Z,96294.06
2024-02-19T00:07:22.986Z,96305.69
2024-02-19T00:09:49.508Z,96301.25
2024-02-19T00:12:16.157Z,96298.03
2024-02-19T00:14:42.625Z,96296.97
2024-02-19T00:17:09.136Z,96298.75
2024-02-19T00:19:35.706Z,96300.03
2024-02-19T00:22:02.226Z,96309.75
2024-02-19T00:24:28.680Z,96310.25
2024-02-19T00:26:55.097Z,96306.84
2024-02-19T00:29:21.525Z,96305.31
2024-02-19T00:31:47.955Z,96293.16
2024-02-19T00:34:14.514Z,96296.75
2024-02-19T00:36:41.001Z,96295.09
2024-02-19T00:39:07.469Z,96292.28
2024-02-19T00:41:33.873Z,96294.47
2024-02-19T00:44:00.346Z,96283.63
2024-02-19T00:46:26.791Z,96289.94
2024-02-19T00:48:53.360Z,96288.13
2024-02-19T00:51:19.945Z,96292.84
2024-02-19T00:53:46.356Z,96284.03
2024-02-19T00:56:12.803Z,96282.38
2024-02-19T00:58:39.252Z,96288.41
2024-02-19T01:01:05.803Z,96281.78
2024-02-19T01:03:32.315Z,96272.50
2024-02-19T01:05:58.844Z,96274.75
2024-02-19T01:08:25.348Z,96278.22
2024-02-19T01:10:51.804Z,96290.19
2024-02-19T01:13:18.279Z,96286.50
2024-02-19T01:15:44.783Z,96284.97
2024-02-19T01:18:11.313Z,96289.09
2024-02-19T01:20:37.905Z,96303.78
2024-02-19T01:23:04.339Z,96298.31
2024-02-19T01:25:30.760Z,96302.00
2024-02-19T01:27:57.222Z,96299.59
2024-02-19T01:30:23.720Z,96284.19
2024-02-19T01:32:50.148Z,96290.09
2024-02-19T01:35:16.643Z,96293.41
2024-02-19T01:37:43.106Z,96288.69
2024-02-19T01:40:09.539Z,96301.31
2024-02-19T01:42:35.997Z,96294.75
2024-02-19T01:45:02.477Z,96290.56
2024-02-19T01:47:28.926Z,96288.41
2024-02-19T01:49:55.516Z,96288.78
2024-02-19T01:52:21.987Z,96285.75
2024-02-19T01:54:48.446Z,96293.38
2024-02-19T01:57:14.869Z,96274.03
2024-02-19T01:59:41.275Z,96270.59
2024-02-19T02:02:07.691Z,96269.47
2024-02-19T02:04:34.087Z,96265.41
2024-02-19T02:07:00.536Z,96262.00
2024-02-19T02:09:26.967Z,96266.47
2024-02-19T02:11:53.400Z,96267.22
2024-02-19T02:14:19.826Z,96267.00
2024-02-19T02:16:46.238Z,96263.34
2024-02-19T02:19:12.750Z,96260.16
2024-02-19T02:21:39.245Z,96257.59
2024-02-19T02:24:05.677Z,96260.06
2024-02-19T02:26:32.102Z,96259.47
2024-02-19T02:28:58.530Z,96257.34
2024-02-19T02:31:24.990Z,96263.81
2024-02-19T02:33:51.644Z,96252.81
2024-02-19T02:36:18.223Z,96247.41
2024-02-19T02:38:44.647Z,96251.66
2024-02-19T02:41:11.072Z,96249.56
2024-02-19T02:43:37.490Z,96244.41
2024-02-19T02:46:03.973Z,96244.00
2024-02-19T02:48:30.487Z,96231.88
2024-02-19T02:50:56.967Z,96238.56
2024-02-19T02:53:23.391Z,96243.28
2024-02-19T02:55:49.835Z,96233.56
2024-02-19T02:58:16.475Z,96231.59
2024-02-19T03:00:43.033Z,96233.19
2024-02-19T03:03:09.501Z,96230.47
2024-02-19T03:05:35.919Z,96225.41
2024-02-19T03:08:02.384Z,96220.94
2024-02-19T03:10:28.839Z,96224.56
2024-02-19T03:12:55.279Z,96224.94
2024-02-19T03:15:21.703Z,96225.13
2024-02-19T03:17:48.258Z,96222.22
2024-02-19T03:20:14.866Z,96223.22
2024-02-19T03:22:41.430Z,96218.03
2024-02-19T03:25:07.913Z,96216.63
2024-02-19T03:27:34.348Z,96219.75
2024-02-19T03:30:00.790Z,96217.06
2024-02-19T03:32:27.261Z,96219.81
2024-02-19T03:34:53.751Z,96224.06
2024-02-19T03:37:20.346Z,96208.41
2024-02-19T03:39:46.860Z,96217.97
2024-02-19T03:42:13.311Z,96216.81
2024-02-19T03:44:39.733Z,96212.56
2024-02-19T03:47:06.169Z,96219.06
2024-02-19T03:49:32.670Z,96217.78
2024-02-19T03:51:59.247Z,96215.88
2024-02-19T03:54:25.754Z,96221.63
2024-02-19T03:56:52.207Z,96224.91
2024-02-19T03:59:18.615Z,96215.94
2024-02-19T04:01:45.149Z,96223.66
2024-02-19T04:04:11.638Z,96223.13
2024-02-19T04:06:38.187Z,96215.53
2024-02-19T04:09:04.673Z,96222.72
2024-02-19T04:11:31.124Z,96216.75
2024-02-19T04:13:57.576Z,96221.66
2024-02-19T04:16:24.042Z,96221.56
2024-02-19T04:18:50.741Z,96208.41
2024-02-19T04:21:17.279Z,96216.44
2024-02-19T04:23:43.711Z,96212.56
2024-02-19T04:26:10.132Z,96224.84
2024-02-19T04:28:36.565Z,96215.81
2024-02-19T04:31:03.161Z,96220.41
2024-02-19T04:33:29.692Z,96222.75
2024-02-19T04:35:56.215Z,96220.06
2024-02-19T04:38:22.654Z,96221.97
2024-02-19T04:40:49.111Z,96213.91
2024-02-19T04:43:15.693Z,96221.78
2024-02-19T04:45:42.183Z,96231.78
2024-02-19T04:48:08.711Z,96226.63
2024-02-19T04:50:35.166Z,96235.66
2024-02-19T04:53:01.606Z,96233.28
2024-02-19T04:55:28.102Z,96234.63
2024-02-19T04:57:54.664Z,96233.66
2024-02-19T05:00:21.093Z,96236.72
2024-02-19T05:02:47.545Z,96236.06
2024-02-19T05:05:14.023Z,96231.16
2024-02-19T05:07:40.492Z,96237.31
2024-02-19T05:10:07.371Z,96236.25
2024-02-19T05:12:33.812Z,96243.44
2024-02-19T05:15:00.252Z,96245.09
2024-02-19T05:17:26.719Z,96237.78
2024-02-19T05:19:53.209Z,96232.25
2024-02-19T05:22:19.791Z,96225.91
2024-02-19T05:24:46.485Z,96221.41
2024-02-19T05:27:13.050Z,96228.16
2024-02-19T05:29:39.485Z,96227.97
2024-02-19T05:32:05.901Z,96228.88
2024-02-19T05:34:32.373Z,96231.00
2024-02-19T05:36:58.841Z,96229.69
2024-02-19T05:39:25.293Z,96240.69
2024-02-19T05:41:51.700Z,96237.75
2024-02-19T05:44:18.151Z,96238.53
2024-02-19T05:46:44.730Z,96245.19
2024-02-19T05:49:11.204Z,96240.03
2024-02-19T05:51:37.834Z,96238.06
2024-02-19T05:54:04.304Z,96229.88
2024-02-19T05:56:30.738Z,96233.97
2024-02-19T05:58:57.187Z,96243.72
2024-02-19T06:01:23.810Z,96248.03
2024-02-19T06:03:50.346Z,96250.13
2024-02-19T06:06:16.848Z,96241.31
2024-02-19T06:08:43.274Z,96236.06
2024-02-19T06:11:09.777Z,96236.88
2024-02-19T06:13:36.282Z,96243.34
2024-02-19T06:16:02.812Z,96244.94
2024-02-19T06:18:29.366Z,96247.34
2024-02-19T06:20:55.860Z,96250.59
2024-02-19T06:23:22.320Z,96261.91
2024-02-19T06:25:48.725Z,96258.56
2024-02-19T06:28:15.279Z,96255.31
2024-02-19T06:30:41.831Z,96256.75
2024-02-19T06:33:08.639Z,96259.53
2024-02-19T06:35:35.187Z,96251.94
2024-02-19T06:38:01.631Z,96253.63
2024-02-19T06:40:28.286Z,96249.56
2024-02-19T06:42:55.427Z,96252.34
2024-02-19T06:45:22.388Z,96250.66
2024-02-19T06:47:48.830Z,96261.78
2024-02-19T06:50:15.368Z,96255.25
2024-02-19T06:52:41.817Z,96260.00
2024-02-19T06:55:08.257Z,96262.91
2024-02-19T06:57:34.715Z,96261.84
2024-02-19T07:00:01.122Z,96255.06
2024-02-19T07:02:27.551Z,96261.19
2024-02-19T07:04:54.168Z,96276.78
2024-02-19T07:07:20.749Z,96280.56
2024-02-19T07:09:47.271Z,96280.56
2024-02-19T07:12:13.724Z,96281.41
2024-02-19T07:14:40.182Z,96275.53
2024-02-19T07:17:06.602Z,96275.88
2024-02-19T07:19:33.138Z,96282.88
2024-02-19T07:21:59.690Z,96281.19
2024-02-19T07:24:26.134Z,96283.69
2024-02-19T07:26:52.580Z,96287.81
2024-02-19T07:29:19.010Z,96279.91
2024-02-19T07:31:45.527Z,96286.78
2024-02-19T07:34:12.111Z,96288.50
2024-02-19T07:36:38.645Z,96284.31
2024-02-19T07:39:05.130Z,96291.56
2024-02-19T07:41:31.550Z,96300.44
2024-02-19T07:43:57.999Z,96298.75
2024-02-19T07:46:24.456Z,96298.06
2024-02-19T07:48:51.128Z,96299.47
2024-02-19T07:51:17.613Z,96291.44
2024-02-19T07:53:44.037Z,96283.34
2024-02-19T07:56:10.471Z,96293.31
2024-02-19T07:58:36.887Z,96285.34
2024-02-19T08:01:04.417Z,96292.06
2024-02-19T08:03:31.459Z,96298.19
2024-02-19T08:05:57.979Z,96315.28
2024-02-19T08:08:24.416Z,96312.72
2024-02-19T08:10:50.846Z,96325.09
2024-02-19T08:13:17.503Z,96320.09
2024-02-19T08:15:44.077Z,96329.41
2024-02-19T08:18:10.608Z,96325.50
2024-02-19T08:20:37.073Z,96332.06
2024-02-19T08:23:03.510Z,96336.66
2024-02-19T08:25:29.967Z,96338.59
2024-02-19T08:27:56.450Z,96327.47
2024-02-19T08:30:22.901Z,96336.00
2024-02-19T08:32:49.429Z,96343.06
2024-02-19T08:35:15.958Z,96340.63
2024-02-19T08:37:42.536Z,96344.19
2024-02-19T08:40:09.044Z,96341.81
2024-02-19T08:42:35.543Z,96353.19
2024-02-19T08:45:01.963Z,96352.00
2024-02-19T08:47:28.432Z,96351.31
2024-02-19T08:49:55.016Z,96345.47
2024-02-19T08:52:21.489Z,96345.91
2024-02-19T08:54:47.964Z,96340.22
2024-02-19T08:57:14.427Z,96340.00
2024-02-19T08:59:40.843Z,96336.00
2024-02-19T09:02:07.423Z,96337.44
2024-02-19T09:04:34.068Z,96339.09
2024-02-19T09:07:00.810Z,96342.09
2024-02-19T09:09:27.385Z,96343.25
2024-02-19T09:11:53.926Z,96337.97
2024-02-19T09:14:20.427Z,96342.81
2024-02-19T09:16:46.954Z,96342.28
2024-02-19T09:19:13.395Z,96345.22
2024-02-19T09:21:39.931Z,96345.09
2024-02-19T09:24:06.344Z,96351.97
2024-02-19T09:26:32.797Z,96337.97
2024-02-19T09:28:59.249Z,96348.25
2024-02-19T09:31:25.679Z,96348.03
2024-02-19T09:33:52.300Z,96350.59
2024-02-19T09:36:18.781Z,96350.41
2024-02-19T09:38:45.186Z,96348.34
2024-02-19T09:41:11.620Z,96345.84
2024-02-19T09:43:38.032Z,96354.94
2024-02-19T09:46:04.488Z,96341.03
2024-02-19T09:48:31.011Z,96347.38
2024-02-19T09:50:57.492Z,96352.31
2024-02-19T09:53:23.985Z,96348.88
2024-02-19T09:55:50.433Z,96350.03
2024-02-19T09:58:16.949Z,96348.91
2024-02-19T10:00:43.507Z,96349.91
2024-02-19T10:03:10.001Z,96345.44
2024-02-19T10:05:36.531Z,96345.97
2024-02-19T10:08:03.082Z,96339.16
2024-02-19T10:10:29.723Z,96347.44
2024-02-19T10:12:56.301Z,96338.03
2024-02-19T10:15:22.750Z,96341.91
2024-02-19T10:17:49.256Z,96338.09
2024-02-19T10:20:15.766Z,96329.19
2024-02-19T10:22:42.229Z,96330.91
2024-02-19T10:25:08.990Z,96333.44
2024-02-19T10:27:35.575Z,96328.28
2024-02-19T10:30:02.038Z,96325.16
2024-02-19T10:32:28.683Z,96325.75
2024-02-19T10:34:55.184Z,96337.56
2024-02-19T10:37:21.732Z,96331.00
2024-02-19T10:39:48.215Z,96340.41
2024-02-19T10:42:14.656Z,96345.75
2024-02-19T10:44:41.085Z,96342.88
2024-02-19T10:47:07.516Z,96335.69
2024-02-19T10:49:33.999Z,96332.69
2024-02-19T10:52:00.623Z,96334.38
2024-02-19T10:54:27.196Z,96325.31
2024-02-19T10:56:53.723Z,96314.38
2024-02-19T10:59:20.242Z,96313.75
2024-02-19T11:01:46.753Z,96313.41
2024-02-19T11:04:13.349Z,96318.81
2024-02-19T11:06:39.940Z,96306.94
2024-02-19T11:09:06.414Z,96320.59
2024-02-19T11:11:32.870Z,96312.91
2024-02-19T11:13:59.339Z,96306.88
2024-02-19T11:16:25.833Z,96294.84
2024-02-19T11:18:54.642Z,96287.94
2024-02-19T11:21:21.947Z,96298.66
2024-02-19T11:23:48.388Z,96299.72
2024-02-19T11:26:14.846Z,96296.19
2024-02-19T11:28:41.300Z,96290.09
2024-02-19T11:31:07.767Z,96286.84
2024-02-19T11:33:34.242Z,96292.75
2024-02-19T11:36:00.674Z,96282.63
2024-02-19T11:38:27.106Z,96285.88
2024-02-19T11:40:53.539Z,96281.50
2024-02-19T11:43:20.059Z,96283.09
2024-02-19T11:45:46.493Z,96273.72
2024-02-19T11:48:12.992Z,96264.25
2024-02-19T11:50:41.317Z,96269.59
2024-02-19T11:53:09.143Z,96269.69
2024-02-19T11:55:35.734Z,96270.31
2024-02-19T11:58:03.269Z,96259.38
2024-02-19T12:00:30.354Z,96265.03
2024-02-19T12:02:56.790Z,96255.31
2024-02-19T12:05:23.261Z,96244.84
2024-02-19T12:07:49.952Z,96247.88
2024-02-19T12:10:16.507Z,96245.16
2024-02-19T12:12:43.041Z,96242.38
2024-02-19T12:15:09.514Z,96238.34
2024-02-19T12:17:35.977Z,96245.28
2024-02-19T12:20:02.550Z,96242.28
2024-02-19T12:22:29.076Z,96243.06
2024-02-19T12:24:55.835Z,96242.38
2024-02-19T12:27:22.397Z,96235.06
2024-02-19T12:29:48.811Z,96229.69
2024-02-19T12:32:15.250Z,96234.50
2024-02-19T12:34:41.757Z,96229.97
2024-02-19T12:37:08.371Z,96222.78
2024-02-19T12:39:34.886Z,96228.91
2024-02-19T12:42:01.305Z,96227.53
2024-02-19T12:44:27.742Z,96220.84
2024-02-19T12:46:54.253Z,96223.97
2024-02-19T12:49:20.940Z,96214.06
2024-02-19T12:51:47.585Z,96221.16
2024-02-19T12:54:14.143Z,96222.00
2024-02-19T12:56:40.566Z,96230.81
2024-02-19T12:59:07.007Z,96230.56
2024-02-19T13:01:34.108Z,96226.28
2024-02-19T13:04:00.892Z,96228.88
2024-02-19T13:06:27.698Z,96223.94
2024-02-19T13:08:54.157Z,96224.81
2024-02-19T13:11:20.756Z,96218.75
2024-02-19T13:13:47.342Z,96222.25
2024-02-19T13:16:13.844Z,96220.75
2024-02-19T13:18:40.376Z,96213.22
2024-02-19T13:21:06.872Z,96221.69
2024-02-19T13:23:33.307Z,96213.31
2024-02-19T13:25:59.725Z,96204.94
2024-02-19T13:28:26.249Z,96210.28
2024-02-19T13:30:52.719Z,96204.19
2024-02-19T13:33:19.316Z,96201.00
2024-02-19T13:35:45.875Z,96199.63
2024-02-19T13:38:12.287Z,96196.56
2024-02-19T13:40:38.720Z,96197.34
2024-02-19T13:43:05.219Z,96192.41
2024-02-19T13:45:31.657Z,96194.97
2024-02-19T13:47:58.104Z,96192.03
2024-02-19T13:50:24.895Z,96202.63
2024-02-19T13:52:51.558Z,96193.94
2024-02-19T13:55:21.092Z,96205.34
2024-02-19T13:57:47.661Z,96196.56
2024-02-19T14:00:14.155Z,96202.31
2024-02-19T14:02:40.616Z,96200.78
2024-02-19T14:05:07.110Z,96201.13
2024-02-19T14:07:33.608Z,96207.63
2024-02-19T14:10:00.084Z,96209.16
2024-02-19T14:12:26.532Z,96208.75
2024-02-19T14:14:52.972Z,96209.44
2024-02-19T14:17:19.426Z,96202.69
2024-02-19T14:19:45.952Z,96202.31
2024-02-19T14:22:12.487Z,96184.22
2024-02-19T14:24:39.070Z,96181.00
2024-02-19T14:27:05.733Z,96176.13
2024-02-19T14:29:33.385Z,96169.44
2024-02-19T14:31:59.797Z,96166.31
2024-02-19T14:34:26.592Z,96167.28
2024-02-19T14:36:53.191Z,96170.66
2024-02-19T14:39:19.750Z,96177.78
2024-02-19T14:41:46.182Z,96180.13
2024-02-19T14:44:12.607Z,96180.19
2024-02-19T14:46:45.680Z,96182.69
2024-02-19T14:49:18.042Z,96184.81
2024-02-19T14:51:44.747Z,96191.25
2024-02-19T14:54:11.226Z,96188.19
2024-02-19T14:56:39.520Z,96176.41
2024-02-19T14:59:06.041Z,96169.81
2024-02-19T15:01:32.556Z,96156.03
2024-02-19T15:03:59.185Z,96155.13
2024-02-19T15:06:25.782Z,96160.88
2024-02-19T15:08:52.256Z,96158.13
2024-02-19T15:11:18.725Z,96158.06
2024-02-19T15:13:45.285Z,96158.25
2024-02-19T15:16:11.819Z,96151.50
2024-02-19T15:18:38.325Z,96146.72
2024-02-19T15:21:04.783Z,96145.53
2024-02-19T15:23:31.245Z,96144.50
2024-02-19T15:25:59.108Z,96141.75
2024-02-19T15:28:25.797Z,96144.31
2024-02-19T15:30:52.296Z,96139.38
2024-02-19T15:33:18.837Z,96135.25
2024-02-19T15:35:45.469Z,96138.41
2024-02-19T15:38:13.691Z,96130.16
2024-02-19T15:40:40.494Z,96134.00
2024-02-19T15:43:07.183Z,96129.41
2024-02-19T15:45:33.622Z,96140.34
2024-02-19T15:48:00.109Z,96148.47
2024-02-19T15:50:26.655Z,96141.66
2024-02-19T15:52:58.887Z,96144.69
2024-02-19T15:55:31.776Z,96143.16
2024-02-19T15:57:58.384Z,96146.66
2024-02-19T16:00:24.957Z,96137.22
2024-02-19T16:02:51.433Z,96136.84
2024-02-19T16:05:17.931Z,96141.00
2024-02-19T16:07:44.549Z,96141.78
2024-02-19T16:10:11.094Z,96143.31
2024-02-19T16:12:37.541Z,96134.53
2024-02-19T16:15:03.990Z,96142.16
2024-02-19T16:17:30.419Z,96134.91
2024-02-19T16:19:56.951Z,96136.06
2024-02-19T16:22:23.437Z,96142.53
2024-02-19T16:24:49.907Z,96141.03
2024-02-19T16:27:16.365Z,96133.78
2024-02-19T16:29:42.794Z,96131.91
2024-02-19T16:32:09.250Z,96128.84
2024-02-19T16:34:35.736Z,96117.44
2024-02-19T16:37:02.292Z,96116.28
2024-02-19T16:39:28.733Z,96117.44
2024-02-19T16:41:55.338Z,96123.53
2024-02-19T16:44:21.763Z,96130.38
2024-02-19T16:46:48.225Z,96126.56
2024-02-19T16:49:14.867Z,96124.28
2024-02-19T16:51:41.368Z,96131.91
2024-02-19T16:54:07.806Z,96137.59
2024-02-19T16:56:34.212Z,96136.09
2024-02-19T16:59:00.664Z,96126.56
2024-02-19T17:01:27.231Z,96127.34
2024-02-19T17:03:53.866Z,96126.56
2024-02-19T17:06:20.429Z,96131.53
2024-02-19T17:08:46.908Z,96134.19
2024-02-19T17:11:13.416Z,96129.25
2024-02-19T17:13:39.901Z,96132.66
2024-02-19T17:16:06.473Z,96136.47
2024-02-19T17:18:33.121Z,96141.78
2024-02-19T17:20:59.656Z,96139.50
2024-02-19T17:23:26.073Z,96130.75
2024-02-19T17:25:52.510Z,96133.41
2024-02-19T17:28:18.981Z,96137.97
2024-02-19T17:30:45.515Z,96140.66
2024-02-19T17:33:12.087Z,96136.47
2024-02-19T17:35:41.569Z,96142.94
2024-02-19T17:38:10.018Z,96147.09
2024-02-19T17:40:36.550Z,96142.47
2024-02-19T17:43:03.093Z,96141.75
2024-02-19T17:45:29.566Z,96128.00
2024-02-19T17:47:56.034Z,96130.72
2024-02-19T17:50:22.545Z,96131.13
2024-02-19T17:52:49.090Z,96131.81
2024-02-19T17:55:15.599Z,96133.28
2024-02-19T17:57:42.137Z,96132.03
2024-02-19T18:00:08.557Z,96130.34
2024-02-19T18:02:35.459Z,96129.50
2024-02-19T18:05:01.876Z,96115.13
2024-02-19T18:07:28.909Z,96111.69
2024-02-19T18:09:55.470Z,96109.88
2024-02-19T18:12:21.899Z,96107.44
2024-02-19T18:14:48.370Z,96108.41
2024-02-19T18:17:14.812Z,96109.75
2024-02-19T18:19:41.415Z,96097.97
2024-02-19T18:22:07.995Z,96095.47
2024-02-19T18:24:34.508Z,96094.03
2024-02-19T18:27:00.950Z,96086.84
2024-02-19T18:29:27.362Z,96085.44
2024-02-19T18:31:53.804Z,96083.31
2024-02-19T18:34:20.262Z,96090.09
2024-02-19T18:36:47.025Z,96105.97
2024-02-19T18:39:13.495Z,96123.63
2024-02-19T18:41:39.906Z,96120.56
2024-02-19T18:44:06.339Z,96120.69
2024-02-19T18:46:32.930Z,96121.94
2024-02-19T18:48:59.505Z,96109.44
2024-02-19T18:51:25.934Z,96122.91
2024-02-19T18:53:52.387Z,96120.69
2024-02-19T18:56:18.805Z,96129.16
2024-02-19T18:58:45.267Z,96133.72
2024-02-19T19:01:11.811Z,96135.97
2024-02-19T19:03:38.350Z,96137.88
2024-02-19T19:06:05.189Z,96142.06
2024-02-19T19:08:31.749Z,96149.31
2024-02-19T19:10:58.209Z,96142.50
2024-02-19T19:13:24.743Z,96136.06
2024-02-19T19:15:51.250Z,96137.97
2024-02-19T19:18:17.784Z,96129.28
2024-02-19T19:20:44.295Z,96119.03
2024-02-19T19:23:10.767Z,96114.50
2024-02-19T19:25:37.273Z,96116.38
2024-02-19T19:28:03.801Z,96122.09
2024-02-19T19:30:30.302Z,96113.00
2024-02-19T19:32:56.845Z,96109.97
2024-02-19T19:35:23.489Z,96103.88
2024-02-19T19:37:49.944Z,96102.81
2024-02-19T19:40:16.463Z,96102.06
2024-02-19T19:42:43.057Z,96107.91
2024-02-19T19:45:09.467Z,96105.25
2024-02-19T19:47:36.050Z,96113.09
2024-02-19T19:50:02.675Z,96105.47
2024-02-19T19:52:30.029Z,96110.13
2024-02-19T19:54:57.948Z,96105.25
2024-02-19T19:57:25.834Z,96109.94
2024-02-19T19:59:54.465Z,96113.09
2024-02-19T20:02:20.928Z,96103.31
2024-02-19T20:04:47.404Z,96101.06
2024-02-19T20:07:13.887Z,96097.34
2024-02-19T20:09:41.513Z,96091.25
2024-02-19T20:12:09.034Z,96075.00
2024-02-19T20:14:35.452Z,96076.50
2024-02-19T20:17:01.926Z,96079.16
2024-02-19T20:19:28.419Z,96079.16
2024-02-19T20:21:55.026Z,96082.44
2024-02-19T20:24:21.514Z,96096.56
2024-02-19T20:26:47.941Z,96103.06
2024-02-19T20:29:14.443Z,96105.66
2024-02-19T20:31:40.908Z,96107.22
2024-02-19T20:34:07.617Z,96113.69
2024-02-19T20:36:36.774Z,96112.31
2024-02-19T20:39:04.771Z,96118.41
2024-02-19T20:41:31.182Z,96118.63
2024-02-19T20:43:57.623Z,96124.38
2024-02-19T20:46:24.143Z,96127.31
2024-02-19T20:48:50.653Z,96132.09
2024-02-19T20:51:17.140Z,96130.13
2024-02-19T20:53:43.591Z,96133.03
2024-02-19T20:56:10.019Z,96136.34
2024-02-19T20:58:36.532Z,96126.63
2024-02-19T21:01:03.085Z,96132.41
2024-02-19T21:03:35.894Z,96128.44
2024-02-19T21:06:09.255Z,96130.19
2024-02-19T21:08:35.661Z,96134.19
2024-02-19T21:11:02.115Z,96130.91
2024-02-19T21:13:28.571Z,96133.34
2024-02-19T21:15:55.988Z,96130.03
2024-02-19T21:18:31.325Z,96118.31
2024-02-19T21:21:10.132Z,96115.09
2024-02-19T21:23:38.860Z,96112.09
2024-02-19T21:26:05.289Z,96111.44
2024-02-19T21:28:31.801Z,96105.84
2024-02-19T21:30:58.352Z,96101.66
2024-02-19T21:33:24.950Z,96102.41
2024-02-19T21:35:51.404Z,96093.41
2024-02-19T21:38:17.831Z,96105.88
2024-02-19T21:40:44.300Z,96102.34
2024-02-19T21:43:10.779Z,96092.78
2024-02-19T21:45:37.233Z,96104.13
2024-02-19T21:48:03.763Z,96103.44
2024-02-19T21:50:30.233Z,96101.66
2024-02-19T21:52:56.652Z,96104.50
2024-02-19T21:55:23.129Z,96109.19
2024-02-19T21:57:49.570Z,96113.34
2024-02-19T22:00:16.015Z,96115.25
2024-02-19T22:02:42.438Z,96116.44
2024-02-19T22:05:08.973Z,96111.50
2024-02-19T22:07:35.484Z,96103.53
2024-02-19T22:10:02.084Z,96109.25
2024-02-19T22:12:28.532Z,96105.50
2024-02-19T22:14:55.004Z,96101.06
2024-02-19T22:17:21.432Z,96100.69
2024-02-19T22:19:47.964Z,96106.31
2024-02-19T22:22:14.431Z,96102.19
2024-02-19T22:24:40.989Z,96104.41
2024-02-19T22:27:07.406Z,96109.06
2024-02-19T22:29:33.832Z,96104.19
2024-02-19T22:32:00.283Z,96115.19
2024-02-19T22:34:26.775Z,96106.75
2024-02-19T22:36:53.308Z,96112.78
2024-02-19T22:39:19.742Z,96115.00
2024-02-19T22:41:46.175Z,96109.19
2024-02-19T22:44:12.597Z,96104.56
2024-02-19T22:46:39.141Z,96101.78
2024-02-19T22:49:05.752Z,96110.78
2024-02-19T22:51:32.319Z,96102.19
2024-02-19T22:53:58.783Z,96107.78
2024-02-19T22:56:25.203Z,96102.53
2024-02-19T22:58:53.560Z,96108.44
2024-02-19T23:01:23.301Z,96101.63
2024-02-19T23:03:49.828Z,96101.97
2024-02-19T23:06:16.262Z,96109.19
2024-02-19T23:08:42.797Z,96097.94
2024-02-19T23:11:09.258Z,96102.19
2024-02-19T23:13:35.762Z,96096.88
2024-02-19T23:16:02.236Z,96101.97
2024-02-19T23:18:28.762Z,96088.38
2024-02-19T23:20:55.313Z,96104.78
2024-02-19T23:23:21.774Z,96113.16
2024-02-19T23:25:48.282Z,96102.13
2024-02-19T23:28:14.722Z,96114.56
2024-02-19T23:30:41.155Z,96109.72
2024-02-19T23:33:07.709Z,96117.69
2024-02-19T23:35:34.197Z,96123.41
2024-02-19T23:38:00.654Z,96122.34
2024-02-19T23:40:27.247Z,96129.88
2024-02-19T23:42:53.800Z,96129.75
2024-02-19T23:45:20.260Z,96125.69
2024-02-19T23:47:48.180Z,96128.19
2024-02-19T23:50:14.804Z,96128.94
2024-02-19T23:52:41.762Z,96127.53
2024-02-19T23:55:08.351Z,96129.59
2024-02-19T23:57:34.777Z,96131.88
